sensor_id;sensor_type;location;lat;lon;timestamp;pressure;altitude;pressure_sealevel;temperature;humidity
46778;BME280;32536;47.128;8.746;2023-02-23T00:01:58;91330.06;;;11.45;47.94
46778;BME280;32536;47.128;8.746;2023-02-23T00:04:33;91326.63;;;11.45;47.97
46778;BME280;32536;47.128;8.746;2023-02-23T00:07:00;91323.63;;;11.43;48.50
46778;BME280;32536;47.128;8.746;2023-02-23T00:09:27;91319.75;;;11.44;47.81
46778;BME280;32536;47.128;8.746;2023-02-23T00:12:02;91327.03;;;11.43;48.71
46778;BME280;32536;47.128;8.746;2023-02-23T00:14:33;91325.53;;;11.42;48.48
46778;BME280;32536;47.128;8.746;2023-02-23T00:17:02;91332.81;;;11.42;47.64
46778;BME280;32536;47.128;8.746;2023-02-23T00:19:29;91330.16;;;11.42;47.77
46778;BME280;32536;47.128;8.746;2023-02-23T00:21:58;91328.13;;;11.46;48.13
46778;BME280;32536;47.128;8.746;2023-02-23T00:24:25;91329.22;;;11.48;48.34
46778;BME280;32536;47.128;8.746;2023-02-23T00:26:52;91328.41;;;11.51;47.44
46778;BME280;32536;47.128;8.746;2023-02-23T00:29:21;91324.94;;;11.51;48.03
46778;BME280;32536;47.128;8.746;2023-02-23T00:31:50;91331.09;;;11.51;47.74
46778;BME280;32536;47.128;8.746;2023-02-23T00:34:18;91328.41;;;11.51;48.06
46778;BME280;32536;47.128;8.746;2023-02-23T00:36:52;91322.25;;;11.51;49.03
46778;BME280;32536;47.128;8.746;2023-02-23T00:39:20;91320.78;;;11.50;47.52
46778;BME280;32536;47.128;8.746;2023-02-23T00:41:51;91326.97;;;11.47;48.00
46778;BME280;32536;47.128;8.746;2023-02-23T00:44:21;91315.56;;;11.43;48.22
46778;BME280;32536;47.128;8.746;2023-02-23T00:46:49;91319.00;;;11.43;48.49
46778;BME280;32536;47.128;8.746;2023-02-23T00:49:18;91315.88;;;11.45;48.22
46778;BME280;32536;47.128;8.746;2023-02-23T00:51:45;91313.56;;;11.47;48.31
46778;BME280;32536;47.128;8.746;2023-02-23T00:54:13;91317.75;;;11.48;48.35
46778;BME280;32536;47.128;8.746;2023-02-23T00:56:41;91314.28;;;11.47;48.50
46778;BME280;32536;47.128;8.746;2023-02-23T00:59:16;91313.13;;;11.48;49.75
46778;BME280;32536;47.128;8.746;2023-02-23T01:01:43;91315.41;;;11.50;48.85
46778;BME280;32536;47.128;8.746;2023-02-23T01:04:10;91314.22;;;11.51;49.00
46778;BME280;32536;47.128;8.746;2023-02-23T01:06:39;91312.31;;;11.51;48.84
46778;BME280;32536;47.128;8.746;2023-02-23T01:09:11;91311.97;;;11.49;49.00
46778;BME280;32536;47.128;8.746;2023-02-23T01:11:40;91310.78;;;11.50;48.18
46778;BME280;32536;47.128;8.746;2023-02-23T01:14:11;91301.56;;;11.51;48.30
46778;BME280;32536;47.128;8.746;2023-02-23T01:16:38;91306.94;;;11.51;48.06
46778;BME280;32536;47.128;8.746;2023-02-23T01:19:05;91307.69;;;11.52;48.77
46778;BME280;32536;47.128;8.746;2023-02-23T01:21:39;91311.53;;;11.51;48.69
46778;BME280;32536;47.128;8.746;2023-02-23T01:24:07;91309.28;;;11.49;48.04
46778;BME280;32536;47.128;8.746;2023-02-23T01:26:36;91302.06;;;11.46;48.97
46778;BME280;32536;47.128;8.746;2023-02-23T01:29:11;91296.78;;;11.43;49.19
46778;BME280;32536;47.128;8.746;2023-02-23T01:31:45;91299.47;;;11.43;49.11
46778;BME280;32536;47.128;8.746;2023-02-23T01:34:14;91292.25;;;11.40;48.41
46778;BME280;32536;47.128;8.746;2023-02-23T01:36:42;91301.06;;;11.40;49.07
46778;BME280;32536;47.128;8.746;2023-02-23T01:39:13;91306.00;;;11.42;48.84
46778;BME280;32536;47.128;8.746;2023-02-23T01:41:42;91290.66;;;11.42;49.03
46778;BME280;32536;47.128;8.746;2023-02-23T01:46:41;91288.75;;;11.43;48.56
46778;BME280;32536;47.128;8.746;2023-02-23T01:49:13;91292.59;;;11.42;49.61
46778;BME280;32536;47.128;8.746;2023-02-23T01:52:09;91285.78;;;11.37;49.44
46778;BME280;32536;47.128;8.746;2023-02-23T01:54:39;91282.75;;;11.35;48.94
46778;BME280;32536;47.128;8.746;2023-02-23T01:57:15;91287.03;;;11.32;48.53
46778;BME280;32536;47.128;8.746;2023-02-23T01:59:46;91285.94;;;11.30;48.69
46778;BME280;32536;47.128;8.746;2023-02-23T02:02:19;91279.94;;;11.26;51.02
46778;BME280;32536;47.128;8.746;2023-02-23T02:04:47;91281.84;;;11.25;48.74
46778;BME280;32536;47.128;8.746;2023-02-23T02:07:25;91280.31;;;11.24;49.55
46778;BME280;32536;47.128;8.746;2023-02-23T02:09:56;91279.50;;;11.27;48.68
46778;BME280;32536;47.128;8.746;2023-02-23T02:12:37;91276.47;;;11.25;48.98
46778;BME280;32536;47.128;8.746;2023-02-23T02:15:05;91278.41;;;11.25;49.16
46778;BME280;32536;47.128;8.746;2023-02-23T02:26:46;91264.72;;;11.19;50.38
46778;BME280;32536;47.128;8.746;2023-02-23T02:35:21;91260.97;;;11.16;48.75
46778;BME280;32536;47.128;8.746;2023-02-23T02:38:07;91257.53;;;11.16;49.92
46778;BME280;32536;47.128;8.746;2023-02-23T02:40:45;91255.19;;;11.18;49.29
46778;BME280;32536;47.128;8.746;2023-02-23T02:46:01;91253.34;;;11.15;51.00
46778;BME280;32536;47.128;8.746;2023-02-23T02:51:39;91248.41;;;11.13;51.22
46778;BME280;32536;47.128;8.746;2023-02-23T02:54:28;91249.56;;;11.12;49.24
46778;BME280;32536;47.128;8.746;2023-02-23T02:57:00;91258.00;;;11.11;48.94
46778;BME280;32536;47.128;8.746;2023-02-23T02:59:29;91253.00;;;11.13;48.73
46778;BME280;32536;47.128;8.746;2023-02-23T03:02:17;91259.53;;;11.12;48.99
46778;BME280;32536;47.128;8.746;2023-02-23T03:05:13;91251.09;;;11.13;49.66
46778;BME280;32536;47.128;8.746;2023-02-23T03:08:07;91249.50;;;11.16;48.86
46778;BME280;32536;47.128;8.746;2023-02-23T03:11:09;91247.63;;;11.13;49.30
46778;BME280;32536;47.128;8.746;2023-02-23T03:20:28;91241.69;;;11.05;50.20
46778;BME280;32536;47.128;8.746;2023-02-23T03:29:01;91245.53;;;11.04;49.83
46778;BME280;32536;47.128;8.746;2023-02-23T03:32:07;91241.41;;;10.99;50.50
46778;BME280;32536;47.128;8.746;2023-02-23T03:35:15;91243.75;;;10.97;49.23
46778;BME280;32536;47.128;8.746;2023-02-23T03:38:19;91248.00;;;10.95;50.11
46778;BME280;32536;47.128;8.746;2023-02-23T03:41:13;91247.28;;;10.94;49.78
46778;BME280;32536;47.128;8.746;2023-02-23T03:44:08;91243.44;;;10.95;50.20
46778;BME280;32536;47.128;8.746;2023-02-23T03:47:00;91250.63;;;10.98;50.31
46778;BME280;32536;47.128;8.746;2023-02-23T03:49:48;91247.63;;;10.96;49.25
46778;BME280;32536;47.128;8.746;2023-02-23T03:52:48;91238.97;;;10.88;51.55
46778;BME280;32536;47.128;8.746;2023-02-23T03:55:41;91241.63;;;10.88;50.15
46778;BME280;32536;47.128;8.746;2023-02-23T03:58:45;91248.09;;;10.91;50.79
46778;BME280;32536;47.128;8.746;2023-02-23T04:01:34;91243.50;;;10.92;48.99
46778;BME280;32536;47.128;8.746;2023-02-23T04:04:22;91248.16;;;10.87;49.64
46778;BME280;32536;47.128;8.746;2023-02-23T04:07:09;91235.19;;;10.86;49.97
46778;BME280;32536;47.128;8.746;2023-02-23T04:09:58;91244.00;;;10.86;49.21
46778;BME280;32536;47.128;8.746;2023-02-23T04:13:03;91246.34;;;10.84;52.62
46778;BME280;32536;47.128;8.746;2023-02-23T04:18:32;91242.13;;;10.83;50.89
46778;BME280;32536;47.128;8.746;2023-02-23T04:21:00;91247.84;;;10.85;49.46
46778;BME280;32536;47.128;8.746;2023-02-23T04:23:28;91237.13;;;10.85;49.06
46778;BME280;32536;47.128;8.746;2023-02-23T04:25:55;91233.69;;;10.85;49.35
46778;BME280;32536;47.128;8.746;2023-02-23T04:28:24;91232.50;;;10.86;49.55
46778;BME280;32536;47.128;8.746;2023-02-23T04:30:51;91233.22;;;10.90;48.74
46778;BME280;32536;47.128;8.746;2023-02-23T04:33:19;91245.09;;;10.89;49.46
46778;BME280;32536;47.128;8.746;2023-02-23T04:35:47;91255.53;;;10.83;49.16
46778;BME280;32536;47.128;8.746;2023-02-23T04:38:14;91251.75;;;10.81;49.10
46778;BME280;32536;47.128;8.746;2023-02-23T04:40:40;91248.34;;;10.80;49.30
46778;BME280;32536;47.128;8.746;2023-02-23T04:43:10;91255.69;;;10.76;50.03
46778;BME280;32536;47.128;8.746;2023-02-23T04:45:37;91248.41;;;10.77;49.05
46778;BME280;32536;47.128;8.746;2023-02-23T04:48:04;91243.06;;;10.77;49.58
46778;BME280;32536;47.128;8.746;2023-02-23T04:50:32;91245.72;;;10.77;49.74
46778;BME280;32536;47.128;8.746;2023-02-23T04:52:58;91255.25;;;10.78;48.91
46778;BME280;32536;47.128;8.746;2023-02-23T04:55:25;91248.00;;;10.78;49.25
46778;BME280;32536;47.128;8.746;2023-02-23T04:57:56;91257.28;;;10.73;51.15
46778;BME280;32536;47.128;8.746;2023-02-23T05:00:25;91247.78;;;10.69;49.43
46778;BME280;32536;47.128;8.746;2023-02-23T05:02:54;91247.47;;;10.67;49.33
46778;BME280;32536;47.128;8.746;2023-02-23T05:05:22;91242.94;;;10.64;49.60
46778;BME280;32536;47.128;8.746;2023-02-23T05:07:48;91238.06;;;10.59;49.59
46778;BME280;32536;47.128;8.746;2023-02-23T05:10:15;91233.25;;;10.50;49.97
46778;BME280;32536;47.128;8.746;2023-02-23T05:12:42;91233.06;;;10.40;50.31
46778;BME280;32536;47.128;8.746;2023-02-23T05:15:09;91238.88;;;10.35;49.76
46778;BME280;32536;47.128;8.746;2023-02-23T05:17:40;91235.78;;;10.37;49.38
46778;BME280;32536;47.128;8.746;2023-02-23T05:20:09;91234.97;;;10.40;49.49
46778;BME280;32536;47.128;8.746;2023-02-23T05:22:36;91234.91;;;10.44;49.36
46778;BME280;32536;47.128;8.746;2023-02-23T05:25:04;91237.91;;;10.46;49.32
46778;BME280;32536;47.128;8.746;2023-02-23T05:27:31;91227.56;;;10.48;49.51
46778;BME280;32536;47.128;8.746;2023-02-23T05:29:59;91237.50;;;10.47;49.54
46778;BME280;32536;47.128;8.746;2023-02-23T05:32:26;91235.59;;;10.48;49.26
46778;BME280;32536;47.128;8.746;2023-02-23T05:34:53;91231.75;;;10.49;49.11
46778;BME280;32536;47.128;8.746;2023-02-23T05:37:20;91239.38;;;10.50;49.98
46778;BME280;32536;47.128;8.746;2023-02-23T05:39:46;91238.19;;;10.51;50.18
46778;BME280;32536;47.128;8.746;2023-02-23T05:42:13;91229.31;;;10.54;49.47
46778;BME280;32536;47.128;8.746;2023-02-23T05:44:40;91235.44;;;10.55;50.00
46778;BME280;32536;47.128;8.746;2023-02-23T05:47:07;91229.41;;;10.51;49.90
46778;BME280;32536;47.128;8.746;2023-02-23T05:49:33;91234.00;;;10.50;49.27
46778;BME280;32536;47.128;8.746;2023-02-23T05:52:00;91230.16;;;10.51;49.64
46778;BME280;32536;47.128;8.746;2023-02-23T05:54:27;91232.41;;;10.53;49.69
46778;BME280;32536;47.128;8.746;2023-02-23T05:56:54;91232.41;;;10.53;49.36
46778;BME280;32536;47.128;8.746;2023-02-23T05:59:35;91231.31;;;10.50;50.52
46778;BME280;32536;47.128;8.746;2023-02-23T06:02:02;91239.72;;;10.52;50.00
46778;BME280;32536;47.128;8.746;2023-02-23T06:04:31;91232.06;;;10.51;50.07
46778;BME280;32536;47.128;8.746;2023-02-23T06:06:57;91238.28;;;10.48;50.00
46778;BME280;32536;47.128;8.746;2023-02-23T06:09:24;91235.66;;;10.44;49.99
46778;BME280;32536;47.128;8.746;2023-02-23T06:11:51;91236.09;;;10.43;49.89
46778;BME280;32536;47.128;8.746;2023-02-23T06:14:18;91242.84;;;10.47;50.24
46778;BME280;32536;47.128;8.746;2023-02-23T06:16:45;91235.53;;;10.51;49.89
46778;BME280;32536;47.128;8.746;2023-02-23T06:19:13;91245.13;;;10.49;50.27
46778;BME280;32536;47.128;8.746;2023-02-23T06:21:40;91240.53;;;10.49;50.67
46778;BME280;32536;47.128;8.746;2023-02-23T06:24:06;91239.78;;;10.49;50.05
46778;BME280;32536;47.128;8.746;2023-02-23T06:26:33;91242.38;;;10.52;50.04
46778;BME280;32536;47.128;8.746;2023-02-23T06:29:00;91247.59;;;10.60;50.60
46778;BME280;32536;47.128;8.746;2023-02-23T06:31:27;91244.78;;;10.67;50.21
46778;BME280;32536;47.128;8.746;2023-02-23T06:33:54;91250.47;;;10.69;50.10
46778;BME280;32536;47.128;8.746;2023-02-23T06:36:20;91252.81;;;10.67;50.96
46778;BME280;32536;47.128;8.746;2023-02-23T06:38:47;91252.13;;;10.63;50.68
46778;BME280;32536;47.128;8.746;2023-02-23T06:41:14;91258.25;;;10.63;50.30
46778;BME280;32536;47.128;8.746;2023-02-23T06:43:41;91252.47;;;10.65;50.50
46778;BME280;32536;47.128;8.746;2023-02-23T06:46:08;91258.25;;;10.63;49.95
46778;BME280;32536;47.128;8.746;2023-02-23T06:48:35;91262.09;;;10.62;50.42
46778;BME280;32536;47.128;8.746;2023-02-23T06:51:02;91269.03;;;10.60;49.97
46778;BME280;32536;47.128;8.746;2023-02-23T06:53:29;91267.94;;;10.57;50.25
46778;BME280;32536;47.128;8.746;2023-02-23T06:55:56;91260.66;;;10.57;49.70
46778;BME280;32536;47.128;8.746;2023-02-23T06:58:23;91262.59;;;10.57;50.29
46778;BME280;32536;47.128;8.746;2023-02-23T07:00:50;91260.22;;;10.59;50.28
46778;BME280;32536;47.128;8.746;2023-02-23T07:03:16;91267.09;;;10.60;50.10
46778;BME280;32536;47.128;8.746;2023-02-23T07:05:43;91273.56;;;10.63;50.45
46778;BME280;32536;47.128;8.746;2023-02-23T07:08:10;91268.19;;;10.63;50.58
46778;BME280;32536;47.128;8.746;2023-02-23T07:10:37;91277.41;;;10.62;50.89
46778;BME280;32536;47.128;8.746;2023-02-23T07:13:04;91272.81;;;10.62;50.25
46778;BME280;32536;47.128;8.746;2023-02-23T07:15:30;91281.16;;;10.64;50.44
46778;BME280;32536;47.128;8.746;2023-02-23T07:17:57;91280.84;;;10.62;50.16
46778;BME280;32536;47.128;8.746;2023-02-23T07:20:24;91276.59;;;10.65;50.43
46778;BME280;32536;47.128;8.746;2023-02-23T07:22:51;91277.69;;;10.67;50.67
46778;BME280;32536;47.128;8.746;2023-02-23T07:25:17;91283.47;;;10.66;50.80
46778;BME280;32536;47.128;8.746;2023-02-23T07:27:44;91278.09;;;10.66;50.93
46778;BME280;32536;47.128;8.746;2023-02-23T07:30:12;91277.31;;;10.65;50.73
46778;BME280;32536;47.128;8.746;2023-02-23T07:32:40;91284.97;;;10.67;50.98
46778;BME280;32536;47.128;8.746;2023-02-23T07:35:07;91284.56;;;10.68;50.28
46778;BME280;32536;47.128;8.746;2023-02-23T07:37:34;91279.13;;;10.72;50.06
46778;BME280;32536;47.128;8.746;2023-02-23T07:40:01;91287.16;;;10.72;50.34
46778;BME280;32536;47.128;8.746;2023-02-23T07:42:28;91291.75;;;10.71;50.76
46778;BME280;32536;47.128;8.746;2023-02-23T07:44:55;91288.66;;;10.73;50.10
46778;BME280;32536;47.128;8.746;2023-02-23T07:47:22;91288.59;;;10.77;50.00
46778;BME280;32536;47.128;8.746;2023-02-23T07:49:57;91286.25;;;10.79;50.14
46778;BME280;32536;47.128;8.746;2023-02-23T07:52:24;91290.44;;;10.80;50.23
46778;BME280;32536;47.128;8.746;2023-02-23T07:54:51;91287.69;;;10.83;50.52
46778;BME280;32536;47.128;8.746;2023-02-23T07:57:17;91288.78;;;10.86;50.76
46778;BME280;32536;47.128;8.746;2023-02-23T07:59:48;91294.50;;;10.88;50.51
46778;BME280;32536;47.128;8.746;2023-02-23T08:02:15;91291.03;;;10.87;50.10
46778;BME280;32536;47.128;8.746;2023-02-23T08:04:42;91294.06;;;10.89;50.59
46778;BME280;32536;47.128;8.746;2023-02-23T08:07:09;91283.34;;;10.89;50.79
46778;BME280;32536;47.128;8.746;2023-02-23T08:09:36;91291.38;;;10.89;50.93
46778;BME280;32536;47.128;8.746;2023-02-23T08:12:03;91302.13;;;10.89;51.34
46778;BME280;32536;47.128;8.746;2023-02-23T08:14:30;91288.72;;;10.89;50.39
46778;BME280;32536;47.128;8.746;2023-02-23T08:16:57;91293.66;;;10.91;50.66
46778;BME280;32536;47.128;8.746;2023-02-23T08:19:26;91297.09;;;10.92;50.41
46778;BME280;32536;47.128;8.746;2023-02-23T08:21:54;91298.19;;;10.94;50.60
46778;BME280;32536;47.128;8.746;2023-02-23T08:24:21;91291.31;;;10.93;50.13
46778;BME280;32536;47.128;8.746;2023-02-23T08:26:49;91288.28;;;10.91;50.28
46778;BME280;32536;47.128;8.746;2023-02-23T08:29:16;91297.09;;;10.92;50.94
46778;BME280;32536;47.128;8.746;2023-02-23T08:31:43;91299.00;;;10.91;50.85
46778;BME280;32536;47.128;8.746;2023-02-23T08:34:10;91298.94;;;10.95;50.63
46778;BME280;32536;47.128;8.746;2023-02-23T08:36:37;91294.66;;;10.97;51.30
46778;BME280;32536;47.128;8.746;2023-02-23T08:39:05;91299.97;;;11.01;50.77
46778;BME280;32536;47.128;8.746;2023-02-23T08:41:34;91304.06;;;11.05;51.67
46778;BME280;32536;47.128;8.746;2023-02-23T08:44:01;91302.50;;;11.08;51.12
46778;BME280;32536;47.128;8.746;2023-02-23T08:46:28;91307.03;;;11.11;50.76
46778;BME280;32536;47.128;8.746;2023-02-23T08:48:56;91305.88;;;11.12;50.78
46778;BME280;32536;47.128;8.746;2023-02-23T08:51:23;91303.50;;;11.14;50.94
46778;BME280;32536;47.128;8.746;2023-02-23T08:53:50;91310.00;;;11.17;51.66
46778;BME280;32536;47.128;8.746;2023-02-23T08:56:16;91309.16;;;11.20;51.25
46778;BME280;32536;47.128;8.746;2023-02-23T08:58:43;91310.59;;;11.25;50.79
46778;BME280;32536;47.128;8.746;2023-02-23T09:01:15;91300.94;;;11.27;51.63
46778;BME280;32536;47.128;8.746;2023-02-23T09:03:43;91300.88;;;11.31;50.76
46778;BME280;32536;47.128;8.746;2023-02-23T09:06:13;91302.81;;;11.30;51.02
46778;BME280;32536;47.128;8.746;2023-02-23T09:08:43;91305.81;;;11.32;51.35
46778;BME280;32536;47.128;8.746;2023-02-23T09:11:09;91300.06;;;11.34;51.03
46778;BME280;32536;47.128;8.746;2023-02-23T09:13:36;91304.66;;;11.33;50.94
46778;BME280;32536;47.128;8.746;2023-02-23T09:16:03;91306.31;;;11.27;51.01
46778;BME280;32536;47.128;8.746;2023-02-23T09:18:32;91307.22;;;11.20;50.71
46778;BME280;32536;47.128;8.746;2023-02-23T09:21:03;91306.97;;;11.15;51.21
46778;BME280;32536;47.128;8.746;2023-02-23T09:23:34;91306.63;;;11.13;51.06
46778;BME280;32536;47.128;8.746;2023-02-23T09:26:06;91311.22;;;11.12;51.08
46778;BME280;32536;47.128;8.746;2023-02-23T09:28:34;91313.50;;;11.14;51.58
46778;BME280;32536;47.128;8.746;2023-02-23T09:31:13;91309.56;;;11.18;52.36
46778;BME280;32536;47.128;8.746;2023-02-23T09:33:42;91298.69;;;11.26;51.59
46778;BME280;32536;47.128;8.746;2023-02-23T09:36:21;91302.81;;;11.30;54.87
46778;BME280;32536;47.128;8.746;2023-02-23T09:38:52;91306.16;;;11.34;51.94
46778;BME280;32536;47.128;8.746;2023-02-23T09:49:39;91309.13;;;11.57;51.53
46778;BME280;32536;47.128;8.746;2023-02-23T09:52:15;91308.94;;;11.64;51.63
46778;BME280;32536;47.128;8.746;2023-02-23T09:54:53;91309.53;;;11.72;51.20
46778;BME280;32536;47.128;8.746;2023-02-23T09:57:32;91313.66;;;11.76;51.45
46778;BME280;32536;47.128;8.746;2023-02-23T10:06:02;91311.81;;;11.90;52.03
46778;BME280;32536;47.128;8.746;2023-02-23T10:08:51;91306.34;;;11.93;52.11
46778;BME280;32536;47.128;8.746;2023-02-23T10:12:17;91297.81;;;11.98;51.76
46778;BME280;32536;47.128;8.746;2023-02-23T10:14:58;91305.13;;;11.98;51.24
46778;BME280;32536;47.128;8.746;2023-02-23T10:17:53;91297.81;;;11.98;52.18
46778;BME280;32536;47.128;8.746;2023-02-23T10:23:22;91284.66;;;12.04;52.07
46778;BME280;32536;47.128;8.746;2023-02-23T10:25:59;91297.97;;;12.08;51.34
46778;BME280;32536;47.128;8.746;2023-02-23T10:28:35;91292.53;;;12.11;50.86
46778;BME280;32536;47.128;8.746;2023-02-23T10:31:15;91285.63;;;12.10;51.31
46778;BME280;32536;47.128;8.746;2023-02-23T10:33:59;91287.59;;;12.10;51.11
46778;BME280;32536;47.128;8.746;2023-02-23T10:36:36;91282.63;;;12.08;51.07
46778;BME280;32536;47.128;8.746;2023-02-23T10:39:07;91279.63;;;12.06;51.73
46778;BME280;32536;47.128;8.746;2023-02-23T10:41:35;91284.91;;;12.10;51.15
46778;BME280;32536;47.128;8.746;2023-02-23T10:44:04;91280.19;;;12.14;51.63
46778;BME280;32536;47.128;8.746;2023-02-23T10:46:39;91273.13;;;12.20;51.31
46778;BME280;32536;47.128;8.746;2023-02-23T10:49:06;91267.31;;;12.22;51.31
46778;BME280;32536;47.128;8.746;2023-02-23T10:51:41;91264.63;;;12.22;51.36
46778;BME280;32536;47.128;8.746;2023-02-23T10:54:37;91262.63;;;12.26;51.20
46778;BME280;32536;47.128;8.746;2023-02-23T11:02:46;91266.63;;;12.34;51.21
46778;BME280;32536;47.128;8.746;2023-02-23T11:11:08;91254.94;;;12.41;50.56
46778;BME280;32536;47.128;8.746;2023-02-23T11:13:50;91260.56;;;12.46;50.94
46778;BME280;32536;47.128;8.746;2023-02-23T11:16:27;91249.38;;;12.48;50.63
46778;BME280;32536;47.128;8.746;2023-02-23T11:19:01;91248.72;;;12.44;50.69
46778;BME280;32536;47.128;8.746;2023-02-23T11:21:36;91248.81;;;12.40;50.38
46778;BME280;32536;47.128;8.746;2023-02-23T11:24:09;91251.25;;;12.35;50.68
46778;BME280;32536;47.128;8.746;2023-02-23T11:26:51;91242.88;;;12.32;50.86
46778;BME280;32536;47.128;8.746;2023-02-23T11:29:37;91240.63;;;12.31;50.58
46778;BME280;32536;47.128;8.746;2023-02-23T11:32:16;91238.47;;;12.26;50.22
46778;BME280;32536;47.128;8.746;2023-02-23T11:34:47;91235.34;;;12.27;50.52
46778;BME280;32536;47.128;8.746;2023-02-23T11:37:34;91226.19;;;12.25;50.66
46778;BME280;32536;47.128;8.746;2023-02-23T11:40:18;91224.25;;;12.25;50.58
46778;BME280;32536;47.128;8.746;2023-02-23T11:42:56;91219.13;;;12.31;50.52
46778;BME280;32536;47.128;8.746;2023-02-23T11:45:32;91211.22;;;12.40;50.81
46778;BME280;32536;47.128;8.746;2023-02-23T11:48:42;91222.50;;;12.48;50.57
46778;BME280;32536;47.128;8.746;2023-02-23T11:51:45;91212.41;;;12.52;50.67
46778;BME280;32536;47.128;8.746;2023-02-23T11:54:26;91206.19;;;12.55;50.23
46778;BME280;32536;47.128;8.746;2023-02-23T11:56:55;91207.59;;;12.60;50.47
46778;BME280;32536;47.128;8.746;2023-02-23T11:59:56;91208.69;;;12.62;50.26
46778;BME280;32536;47.128;8.746;2023-02-23T12:02:28;91205.03;;;12.69;50.42
46778;BME280;32536;47.128;8.746;2023-02-23T12:05:12;91195.34;;;12.72;50.00
46778;BME280;32536;47.128;8.746;2023-02-23T12:08:08;91200.31;;;12.73;50.30
46778;BME280;32536;47.128;8.746;2023-02-23T12:10:42;91197.94;;;12.75;50.01
46778;BME280;32536;47.128;8.746;2023-02-23T12:13:27;91196.13;;;12.72;49.99
46778;BME280;32536;47.128;8.746;2023-02-23T12:21:23;91186.03;;;12.89;50.49
46778;BME280;32536;47.128;8.746;2023-02-23T12:26:33;91179.56;;;13.00;50.08
46778;BME280;32536;47.128;8.746;2023-02-23T12:32:18;91169.47;;;12.91;50.96
46778;BME280;32536;47.128;8.746;2023-02-23T12:35:22;91175.81;;;12.97;50.68
46778;BME280;32536;47.128;8.746;2023-02-23T12:38:11;91177.31;;;12.98;50.74
46778;BME280;32536;47.128;8.746;2023-02-23T12:40:51;91179.03;;;13.05;50.51
46778;BME280;32536;47.128;8.746;2023-02-23T12:46:21;91178.19;;;13.21;50.05
46778;BME280;32536;47.128;8.746;2023-02-23T12:49:05;91170.75;;;13.25;50.47
46778;BME280;32536;47.128;8.746;2023-02-23T12:52:03;91173.44;;;13.25;50.02
46778;BME280;32536;47.128;8.746;2023-02-23T12:54:42;91179.13;;;13.27;49.99
46778;BME280;32536;47.128;8.746;2023-02-23T12:57:52;91172.69;;;13.24;50.21
46778;BME280;32536;47.128;8.746;2023-02-23T13:00:46;91170.00;;;13.24;50.39
46778;BME280;32536;47.128;8.746;2023-02-23T13:12:05;91175.13;;;13.32;50.32
46778;BME280;32536;47.128;8.746;2023-02-23T13:14:42;91173.09;;;13.36;50.19
46778;BME280;32536;47.128;8.746;2023-02-23T13:17:37;91175.34;;;13.37;49.83
46778;BME280;32536;47.128;8.746;2023-02-23T13:20:29;91179.56;;;13.38;50.17
46778;BME280;32536;47.128;8.746;2023-02-23T13:23:03;91173.22;;;13.45;49.83
46778;BME280;32536;47.128;8.746;2023-02-23T13:31:41;91182.66;;;13.50;49.67
46778;BME280;32536;47.128;8.746;2023-02-23T13:34:23;91180.41;;;13.48;49.78
46778;BME280;32536;47.128;8.746;2023-02-23T13:36:52;91177.97;;;13.41;49.92
46778;BME280;32536;47.128;8.746;2023-02-23T13:39:27;91182.28;;;13.38;49.91
46778;BME280;32536;47.128;8.746;2023-02-23T13:42:26;91177.22;;;13.40;49.85
46778;BME280;32536;47.128;8.746;2023-02-23T13:47:57;91182.13;;;13.29;49.72
46778;BME280;32536;47.128;8.746;2023-02-23T13:53:32;91178.81;;;13.25;49.98
46778;BME280;32536;47.128;8.746;2023-02-23T13:56:39;91177.81;;;13.32;49.79
46778;BME280;32536;47.128;8.746;2023-02-23T13:59:20;91183.09;;;13.35;49.48
46778;BME280;32536;47.128;8.746;2023-02-23T14:01:50;91178.84;;;13.38;49.73
46778;BME280;32536;47.128;8.746;2023-02-23T14:04:23;91185.19;;;13.44;49.52
46778;BME280;32536;47.128;8.746;2023-02-23T14:09:56;91183.31;;;13.54;49.33
46778;BME280;32536;47.128;8.746;2023-02-23T14:12:33;91187.94;;;13.53;49.33
46778;BME280;32536;47.128;8.746;2023-02-23T14:18:28;91179.19;;;13.62;49.28
46778;BME280;32536;47.128;8.746;2023-02-23T14:24:26;91186.94;;;13.73;48.81
46778;BME280;32536;47.128;8.746;2023-02-23T14:40:38;91178.75;;;13.99;48.71
46778;BME280;32536;47.128;8.746;2023-02-23T14:43:39;91185.13;;;14.05;48.41
46778;BME280;32536;47.128;8.746;2023-02-23T14:46:16;91177.53;;;14.13;48.68
46778;BME280;32536;47.128;8.746;2023-02-23T14:49:04;91175.03;;;14.18;48.69
46778;BME280;32536;47.128;8.746;2023-02-23T14:51:40;91171.78;;;14.23;48.78
46778;BME280;32536;47.128;8.746;2023-02-23T14:54:21;91177.59;;;14.22;48.92
46778;BME280;32536;47.128;8.746;2023-02-23T14:56:52;91177.22;;;14.11;48.93
46778;BME280;32536;47.128;8.746;2023-02-23T14:59:26;91171.97;;;14.07;49.09
46778;BME280;32536;47.128;8.746;2023-02-23T15:01:58;91178.41;;;14.09;48.93
46778;BME280;32536;47.128;8.746;2023-02-23T15:04:27;91173.66;;;14.14;49.02
46778;BME280;32536;47.128;8.746;2023-02-23T15:06:58;91180.13;;;14.16;49.00
46778;BME280;32536;47.128;8.746;2023-02-23T15:09:39;91179.53;;;14.21;49.00
46778;BME280;32536;47.128;8.746;2023-02-23T15:12:18;91183.75;;;14.22;48.52
46778;BME280;32536;47.128;8.746;2023-02-23T15:14:55;91172.84;;;14.26;48.64
46778;BME280;32536;47.128;8.746;2023-02-23T15:17:29;91173.16;;;14.28;48.71
46778;BME280;32536;47.128;8.746;2023-02-23T15:20:01;91171.66;;;14.27;48.74
46778;BME280;32536;47.128;8.746;2023-02-23T15:22:35;91173.16;;;14.28;48.29
46778;BME280;32536;47.128;8.746;2023-02-23T15:25:20;91180.50;;;14.28;47.05
46778;BME280;32536;47.128;8.746;2023-02-23T15:27:52;91176.47;;;14.32;48.68
46778;BME280;32536;47.128;8.746;2023-02-23T15:33:12;91172.16;;;14.35;48.12
46778;BME280;32536;47.128;8.746;2023-02-23T15:35:45;91164.38;;;14.37;48.34
46778;BME280;32536;47.128;8.746;2023-02-23T15:38:23;91164.25;;;14.40;48.24
46778;BME280;32536;47.128;8.746;2023-02-23T15:41:01;91160.38;;;14.41;48.14
46778;BME280;32536;47.128;8.746;2023-02-23T15:43:31;91159.94;;;14.43;48.27
46778;BME280;32536;47.128;8.746;2023-02-23T15:46:01;91168.75;;;14.44;48.30